createdAt,value
2019-01-16T00:00:37.794Z,100643.46
2019-01-16T00:03:15.226Z,100635.80
2019-01-16T00:06:04.146Z,100645.48
2019-01-16T00:08:51.271Z,100642.08
2019-01-16T00:11:38.174Z,100656.98
2019-01-16T00:14:19.040Z,100639.22
2019-01-16T00:17:07.035Z,100646.08
2019-01-16T00:20:03.971Z,100640.22
2019-01-16T00:22:50.534Z,100641.58
2019-01-16T00:25:37.542Z,100637.39
2019-01-16T00:28:19.857Z,100640.36
2019-01-16T00:31:10.700Z,100644.70
2019-01-16T00:33:57.365Z,100643.89
2019-01-16T00:36:44.798Z,100640.59
2019-01-16T00:39:45.093Z,100633.06
2019-01-16T00:42:23.646Z,100640.69
2019-01-16T00:45:14.741Z,100640.69
2019-01-16T00:47:56.694Z,100631.31
2019-01-16T00:50:43.470Z,100635.52
2019-01-16T00:53:31.514Z,100635.02
2019-01-16T00:56:18.885Z,100641.70
2019-01-16T00:59:04.562Z,100635.74
2019-01-16T01:01:43.475Z,100630.16
2019-01-16T01:04:34.600Z,100633.13
2019-01-16T01:07:22.589Z,100619.58
2019-01-16T01:10:01.964Z,100624.97
2019-01-16T01:12:56.751Z,100625.75
2019-01-16T01:16:00.063Z,100627.40
2019-01-16T01:18:45.600Z,100623.56
2019-01-16T01:21:51.958Z,100626.19
2019-01-16T01:24:43.021Z,100610.88
2019-01-16T01:27:36.954Z,100607.19
2019-01-16T01:30:16.091Z,100608.69
2019-01-16T01:33:04.204Z,100618.72
2019-01-16T01:35:45.105Z,100616.64
2019-01-16T01:38:38.498Z,100612.84
2019-01-16T01:41:25.422Z,100614.91
2019-01-16T01:44:22.444Z,100617.11
2019-01-16T01:46:59.553Z,100613.09
2019-01-16T01:49:35.479Z,100626.64
2019-01-16T01:52:22.255Z,100620.63
2019-01-16T01:55:09.697Z,100619.41
2019-01-16T01:57:49.763Z,100606.86
2019-01-16T02:00:49.760Z,100609.08
2019-01-16T02:03:34.035Z,100601.44
2019-01-16T02:06:17.614Z,100602.57
2019-01-16T02:09:05.652Z,100609.83
2019-01-16T02:11:53.644Z,100603.89
2019-01-16T02:14:41.314Z,100602.20
2019-01-16T02:17:28.495Z,100606.03
2019-01-16T02:20:15.377Z,100602.20
2019-01-16T02:23:09.471Z,100600.66
2019-01-16T02:26:00.669Z,100596.34
2019-01-16T02:28:49.164Z,100592.97
2019-01-16T02:31:31.422Z,100596.34
2019-01-16T02:34:19.433Z,100589.19
2019-01-16T02:37:10.528Z,100582.39
2019-01-16T02:39:53.981Z,100582.79
2019-01-16T02:42:54.426Z,100586.25
2019-01-16T02:46:00.672Z,100585.84
2019-01-16T02:48:45.006Z,100576.16
2019-01-16T02:51:33.044Z,100576.94
2019-01-16T02:54:39.253Z,100576.09
2019-01-16T02:57:42.582Z,100566.39
2019-01-16T03:00:18.298Z,100572.30
2019-01-16T03:02:56.807Z,100578.98
2019-01-16T03:05:43.814Z,100571.89
2019-01-16T03:08:31.849Z,100565.00
2019-01-16T03:11:18.561Z,100560.88
2019-01-16T03:13:59.190Z,100555.69
2019-01-16T03:16:50.061Z,100555.00
2019-01-16T03:19:50.377Z,100546.09
2019-01-16T03:22:53.458Z,100546.47
2019-01-16T03:25:43.604Z,100540.98
2019-01-16T03:28:37.714Z,100525.83
2019-01-16T03:31:37.899Z,100534.30
2019-01-16T03:34:32.086Z,100530.16
2019-01-16T03:37:26.168Z,100530.98
2019-01-16T03:40:18.151Z,100533.87
2019-01-16T03:43:12.231Z,100532.91
2019-01-16T03:45:48.970Z,100527.84
2019-01-16T03:48:45.439Z,100535.11
2019-01-16T03:51:39.573Z,100531.27
2019-01-16T03:54:26.521Z,100530.84
2019-01-16T03:57:03.730Z,100524.03
2019-01-16T03:59:44.968Z,100526.55
2019-01-16T04:02:25.673Z,100524.47
2019-01-16T04:05:04.294Z,100525.39
2019-01-16T04:07:55.610Z,100523.17
2019-01-16T04:10:53.110Z,100523.11
2019-01-16T04:13:35.238Z,100515.62
2019-01-16T04:16:24.034Z,100513.00
2019-01-16T04:19:21.612Z,100512.22
2019-01-16T04:21:58.701Z,100511.84
2019-01-16T04:24:50.183Z,100501.67
2019-01-16T04:27:37.015Z,100508.02
2019-01-16T04:30:25.845Z,100502.47
2019-01-16T04:33:13.101Z,100498.27
2019-01-16T04:36:07.417Z,100495.70
2019-01-16T04:39:00.337Z,100496.25
2019-01-16T04:42:03.756Z,100497.00
2019-01-16T04:44:45.728Z,100490.66
2019-01-16T04:47:30.486Z,100495.30
2019-01-16T04:50:12.374Z,100479.55
2019-01-16T04:52:54.485Z,100484.66
2019-01-16T04:55:48.298Z,100475.74
2019-01-16T04:58:45.472Z,100484.13
2019-01-16T05:01:25.748Z,100484.53
2019-01-16T05:04:16.943Z,100465.00
2019-01-16T05:07:04.002Z,100477.72
2019-01-16T05:09:55.395Z,100477.45
2019-01-16T05:12:36.602Z,100473.70
2019-01-16T05:15:25.013Z,100470.70
2019-01-16T05:18:21.929Z,100473.64
2019-01-16T05:21:08.865Z,100465.25
2019-01-16T05:23:55.864Z,100465.25
2019-01-16T05:26:40.180Z,100457.73
2019-01-16T05:29:33.302Z,100456.06
2019-01-16T05:32:19.989Z,100461.52
2019-01-16T05:35:17.397Z,100459.41
2019-01-16T05:38:03.810Z,100451.03
2019-01-16T05:41:04.124Z,100452.73
2019-01-16T05:43:48.694Z,100440.05
2019-01-16T05:46:31.163Z,100437.45
2019-01-16T05:49:34.595Z,100440.02
2019-01-16T05:52:21.658Z,100432.77
2019-01-16T05:55:09.696Z,100429.38
2019-01-16T05:57:51.758Z,100438.25
2019-01-16T06:00:30.475Z,100423.83
2019-01-16T06:03:18.780Z,100434.47
2019-01-16T06:05:57.446Z,100422.90
2019-01-16T06:08:51.481Z,100427.58
2019-01-16T06:11:31.671Z,100435.65
2019-01-16T06:14:23.588Z,100426.23
2019-01-16T06:17:14.726Z,100427.51
2019-01-16T06:20:01.415Z,100417.23
2019-01-16T06:22:49.501Z,100428.38
2019-01-16T06:25:43.415Z,100420.30
2019-01-16T06:28:31.513Z,100410.55
2019-01-16T06:31:19.440Z,100407.67
2019-01-16T06:33:59.067Z,100400.00
2019-01-16T06:36:56.064Z,100413.55
2019-01-16T06:39:49.920Z,100404.61
2019-01-16T06:42:53.250Z,100406.67
2019-01-16T06:45:35.358Z,100402.37
2019-01-16T06:48:22.433Z,100401.60
2019-01-16T06:51:05.907Z,100393.09
2019-01-16T06:53:45.993Z,100405.01
2019-01-16T06:56:32.846Z,100402.80
2019-01-16T06:59:20.900Z,100399.53
2019-01-16T07:02:17.938Z,100398.59
2019-01-16T07:05:04.689Z,100397.27
2019-01-16T07:07:55.822Z,100395.26
2019-01-16T07:10:41.710Z,100392.16
2019-01-16T07:13:47.870Z,100397.73
2019-01-16T07:16:34.512Z,100393.89
2019-01-16T07:19:21.330Z,100386.34
2019-01-16T07:22:09.361Z,100390.05
2019-01-16T07:25:12.841Z,100388.91
2019-01-16T07:28:03.879Z,100378.23
2019-01-16T07:31:01.778Z,100380.37
2019-01-16T07:33:49.809Z,100384.17
2019-01-16T07:36:37.804Z,100373.95
2019-01-16T07:39:26.774Z,100376.13
2019-01-16T07:42:20.681Z,100376.13
2019-01-16T07:45:08.713Z,100376.16
2019-01-16T07:48:02.037Z,100368.98
2019-01-16T07:50:51.440Z,100367.25
2019-01-16T07:53:38.271Z,100374.92
2019-01-16T07:56:35.608Z,100377.83
2019-01-16T07:59:21.845Z,100377.03
2019-01-16T08:02:09.073Z,100374.49
2019-01-16T08:04:56.003Z,100385.44
2019-01-16T08:07:42.955Z,100382.44
2019-01-16T08:10:22.467Z,100362.94
2019-01-16T08:13:09.426Z,100359.06
2019-01-16T08:15:57.077Z,100362.80
2019-01-16T08:18:44.115Z,100368.20
2019-01-16T08:21:32.104Z,100362.29
2019-01-16T08:24:27.068Z,100361.71
2019-01-16T08:27:07.600Z,100360.33
2019-01-16T08:29:54.303Z,100357.00
2019-01-16T08:32:37.570Z,100360.33
2019-01-16T08:35:23.758Z,100360.73
2019-01-16T08:38:03.198Z,100346.88
2019-01-16T08:40:50.102Z,100363.95
2019-01-16T08:43:41.377Z,100351.30
2019-01-16T08:46:28.364Z,100350.87
2019-01-16T08:49:20.989Z,100349.45
2019-01-16T08:52:07.714Z,100346.39
2019-01-16T08:54:58.766Z,100347.27
2019-01-16T08:57:45.803Z,100346.36
2019-01-16T09:00:49.650Z,100344.45
2019-01-16T09:03:36.369Z,100350.87
2019-01-16T09:06:19.060Z,100344.16
2019-01-16T09:09:05.822Z,100349.13
2019-01-16T09:11:52.587Z,100342.05
2019-01-16T09:14:52.814Z,100334.84
2019-01-16T09:17:39.566Z,100334.19
2019-01-16T09:20:44.801Z,100334.91
2019-01-16T09:23:32.842Z,100341.14
2019-01-16T09:26:33.398Z,100339.84
2019-01-16T09:29:19.513Z,100321.38
2019-01-16T09:32:02.975Z,100329.84
2019-01-16T09:34:42.565Z,100331.50
2019-01-16T09:37:29.467Z,100335.23
2019-01-16T09:40:17.508Z,100326.31
2019-01-16T09:43:00.639Z,100318.66
2019-01-16T09:45:54.950Z,100320.41
2019-01-16T09:48:55.567Z,100318.05
2019-01-16T09:51:46.645Z,100310.32
2019-01-16T09:54:35.790Z,100312.86
2019-01-16T09:57:24.729Z,100311.19
2019-01-16T10:00:15.639Z,100307.78
2019-01-16T10:03:22.331Z,100312.46
2019-01-16T10:06:16.673Z,100301.55
2019-01-16T10:09:04.664Z,100291.00
2019-01-16T10:11:51.776Z,100295.02
2019-01-16T10:14:34.136Z,100281.64
2019-01-16T10:17:35.014Z,100278.08
2019-01-16T10:20:33.002Z,100276.33
2019-01-16T10:23:27.999Z,100269.98
2019-01-16T10:26:20.902Z,100273.31
2019-01-16T10:29:11.789Z,100264.11
2019-01-16T10:31:59.783Z,100270.10
2019-01-16T10:34:46.906Z,100257.84
2019-01-16T10:37:33.917Z,100262.05
2019-01-16T10:40:24.960Z,100262.25
2019-01-16T10:43:15.529Z,100249.11
2019-01-16T10:46:03.570Z,100236.86
2019-01-16T10:48:49.837Z,100244.56
2019-01-16T10:51:36.802Z,100233.48
2019-01-16T10:54:31.122Z,100230.30
2019-01-16T10:57:25.048Z,100231.09
2019-01-16T11:00:05.520Z,100222.77
2019-01-16T11:03:02.544Z,100222.25
2019-01-16T11:05:59.616Z,100200.53
2019-01-16T11:08:44.373Z,100202.94
2019-01-16T11:11:44.818Z,100194.09
2019-01-16T11:14:31.422Z,100183.94
2019-01-16T11:17:16.273Z,100185.64
2019-01-16T11:20:03.032Z,100187.18
2019-01-16T11:22:51.042Z,100173.82
2019-01-16T11:25:44.948Z,100173.92
2019-01-16T11:28:27.476Z,100158.69
2019-01-16T11:31:18.339Z,100155.87
2019-01-16T11:34:05.234Z,100157.23
2019-01-16T11:36:48.871Z,100164.94
2019-01-16T11:39:35.498Z,100149.97
2019-01-16T11:42:26.549Z,100137.40
2019-01-16T11:45:13.239Z,100147.08
2019-01-16T11:48:00.341Z,100138.48
2019-01-16T11:50:51.381Z,100135.42
2019-01-16T11:53:29.628Z,100129.84
2019-01-16T11:56:17.673Z,100117.86
2019-01-16T11:58:58.193Z,100116.55
2019-01-16T12:01:44.946Z,100114.41
2019-01-16T12:04:33.454Z,100107.27
2019-01-16T12:07:18.459Z,100112.23
2019-01-16T12:10:07.487Z,100102.64
2019-01-16T12:12:51.488Z,100109.48
2019-01-16T12:15:42.357Z,100089.55
2019-01-16T12:18:24.374Z,100102.16
2019-01-16T12:21:10.976Z,100078.17
2019-01-16T12:24:02.148Z,100086.89
2019-01-16T12:26:45.186Z,100087.95
2019-01-16T12:29:24.806Z,100081.20
2019-01-16T12:32:11.805Z,100074.52
2019-01-16T12:35:12.922Z,100063.05
2019-01-16T12:37:59.704Z,100067.34
2019-01-16T12:40:47.748Z,100073.46
2019-01-16T12:43:28.297Z,100068.52
2019-01-16T12:46:15.562Z,100055.08
2019-01-16T12:49:06.610Z,100048.25
2019-01-16T12:51:54.422Z,100049.09
2019-01-16T12:54:45.277Z,100049.30
2019-01-16T12:57:33.985Z,100059.23
2019-01-16T13:00:27.969Z,100050.83
2019-01-16T13:03:05.125Z,100048.29
2019-01-16T13:05:51.940Z,100047.11
2019-01-16T13:08:42.839Z,100036.39
2019-01-16T13:11:22.906Z,100043.22
2019-01-16T13:14:08.031Z,100039.98
2019-01-16T13:17:08.182Z,100031.41
2019-01-16T13:19:56.497Z,100036.39
2019-01-16T13:22:37.305Z,100037.48
2019-01-16T13:25:24.583Z,100034.25
2019-01-16T13:28:26.536Z,100028.26
2019-01-16T13:31:10.910Z,100025.67
2019-01-16T13:33:48.665Z,100018.94
2019-01-16T13:36:35.276Z,100016.66
2019-01-16T13:39:30.776Z,100023.00
2019-01-16T13:42:22.149Z,100005.41
2019-01-16T13:45:25.630Z,100014.69
2019-01-16T13:48:12.082Z,100017.00
2019-01-16T13:51:05.002Z,100004.97
2019-01-16T13:53:53.038Z,100009.17
2019-01-16T13:56:51.636Z,100014.52
2019-01-16T13:59:38.546Z,100012.53
2019-01-16T14:02:26.126Z,100009.13
2019-01-16T14:05:13.038Z,100006.50
2019-01-16T14:08:06.887Z,100008.56
2019-01-16T14:10:46.040Z,100002.66
2019-01-16T14:13:35.670Z,100000.60
2019-01-16T14:16:26.869Z,99992.99
2019-01-16T14:19:32.994Z,99987.92
2019-01-16T14:22:23.556Z,100001.87
2019-01-16T14:25:01.989Z,99990.85
2019-01-16T14:27:50.019Z,99993.03
2019-01-16T14:30:44.588Z,99985.55
2019-01-16T14:33:31.453Z,99985.98
2019-01-16T14:36:34.899Z,99975.89
2019-01-16T14:39:23.000Z,99973.05
2019-01-16T14:42:10.106Z,99966.48
2019-01-16T14:44:49.847Z,99961.11
2019-01-16T14:47:31.398Z,99963.55
2019-01-16T14:50:18.116Z,99973.39
2019-01-16T14:52:57.876Z,99969.89
2019-01-16T14:55:51.766Z,99959.92
2019-01-16T14:58:28.541Z,99965.59
2019-01-16T15:01:16.379Z,99966.27
2019-01-16T15:04:04.394Z,99967.05
2019-01-16T15:07:01.994Z,99965.66
2019-01-16T15:09:47.340Z,99960.45
2019-01-16T15:12:44.373Z,99967.22
2019-01-16T15:15:31.436Z,99964.60
2019-01-16T15:18:09.533Z,99955.85
2019-01-16T15:21:03.658Z,99963.41
2019-01-16T15:24:03.955Z,99947.33
2019-01-16T15:26:53.478Z,99946.81
2019-01-16T15:29:44.606Z,99936.31
2019-01-16T15:32:35.361Z,99949.08
2019-01-16T15:35:22.031Z,99943.57
2019-01-16T15:38:20.700Z,99935.27
2019-01-16T15:41:24.850Z,99934.70
2019-01-16T15:44:13.399Z,99930.98
2019-01-16T15:46:52.542Z,99924.95
2019-01-16T15:49:54.082Z,99928.36
2019-01-16T15:52:48.165Z,99927.66
2019-01-16T15:55:33.607Z,99921.80
2019-01-16T15:58:24.629Z,99920.09
2019-01-16T16:01:11.277Z,99927.42
2019-01-16T16:04:05.504Z,99916.73
2019-01-16T16:06:56.585Z,99918.16
2019-01-16T16:09:50.744Z,99908.19
2019-01-16T16:12:29.974Z,99909.29
2019-01-16T16:15:11.054Z,99906.92
2019-01-16T16:17:57.998Z,99899.16
2019-01-16T16:21:01.371Z,99904.22
2019-01-16T16:23:43.156Z,99893.55
2019-01-16T16:26:31.163Z,99890.62
2019-01-16T16:29:23.740Z,99894.90
2019-01-16T16:32:26.812Z,99890.23
2019-01-16T16:35:13.537Z,99879.30
2019-01-16T16:38:13.958Z,99874.40
2019-01-16T16:41:00.851Z,99875.19
2019-01-16T16:43:48.883Z,99862.60
2019-01-16T16:46:27.099Z,99880.81
2019-01-16T16:49:14.229Z,99871.12
2019-01-16T16:52:00.936Z,99861.11
2019-01-16T16:54:51.841Z,99855.87
2019-01-16T16:57:34.861Z,99859.36
2019-01-16T17:00:32.815Z,99851.14
2019-01-16T17:03:18.633Z,99857.78
2019-01-16T17:06:10.083Z,99844.38
2019-01-16T17:08:57.150Z,99843.94
2019-01-16T17:11:43.840Z,99836.81
2019-01-16T17:14:26.712Z,99820.70
2019-01-16T17:17:13.407Z,99829.17
2019-01-16T17:19:52.212Z,99825.85
2019-01-16T17:22:37.421Z,99811.88
2019-01-16T17:25:26.555Z,99820.04
2019-01-16T17:28:16.982Z,99815.36
2019-01-16T17:31:05.941Z,99816.32
2019-01-16T17:33:52.684Z,99809.52
2019-01-16T17:36:33.475Z,99798.07
2019-01-16T17:39:20.206Z,99804.84
2019-01-16T17:42:14.568Z,99803.92
2019-01-16T17:45:01.548Z,99804.09
2019-01-16T17:48:01.739Z,99785.53
2019-01-16T17:50:43.959Z,99788.86
2019-01-16T17:53:30.924Z,99775.92
2019-01-16T17:56:17.199Z,99774.22
2019-01-16T17:59:05.172Z,99773.74
2019-01-16T18:02:05.617Z,99765.31
2019-01-16T18:04:46.401Z,99766.28
2019-01-16T18:07:28.015Z,99771.74
2019-01-16T18:10:16.061Z,99770.81
2019-01-16T18:13:13.460Z,99767.89
2019-01-16T18:16:04.449Z,99754.89
2019-01-16T18:18:45.998Z,99751.26
2019-01-16T18:21:23.085Z,99748.13
2019-01-16T18:24:14.120Z,99745.53
2019-01-16T18:26:56.805Z,99734.80
2019-01-16T18:29:43.595Z,99733.58
2019-01-16T18:32:30.442Z,99746.98
2019-01-16T18:35:13.464Z,99751.56
2019-01-16T18:37:54.586Z,99737.77
2019-01-16T18:40:48.960Z,99739.52
2019-01-16T18:43:27.845Z,99745.49
2019-01-16T18:46:14.606Z,99718.55
2019-01-16T18:49:02.641Z,99725.63
2019-01-16T18:51:49.751Z,99716.94
2019-01-16T18:54:43.872Z,99707.12
2019-01-16T18:57:28.812Z,99716.81
2019-01-16T19:00:28.992Z,99705.85
2019-01-16T19:03:24.356Z,99702.58
2019-01-16T19:06:22.942Z,99700.75
2019-01-16T19:09:11.746Z,99692.41
2019-01-16T19:11:59.781Z,99698.83
2019-01-16T19:14:46.672Z,99692.97
2019-01-16T19:17:34.662Z,99692.49
2019-01-16T19:20:22.678Z,99696.37
2019-01-16T19:23:22.716Z,99692.09
2019-01-16T19:26:09.091Z,99687.16
2019-01-16T19:28:56.065Z,99689.30
2019-01-16T19:31:40.657Z,99681.14
2019-01-16T19:34:29.169Z,99682.54
2019-01-16T19:37:23.065Z,99689.27
2019-01-16T19:40:16.949Z,99674.86
2019-01-16T19:43:07.894Z,99671.94
2019-01-16T19:45:56.181Z,99671.71
2019-01-16T19:51:09.866Z,99660.63
2019-01-16T19:53:56.838Z,99648.54
2019-01-16T19:56:41.952Z,99653.13
2019-01-16T19:59:28.920Z,99657.09
2019-01-16T20:02:16.980Z,99656.05
2019-01-16T20:05:14.090Z,99653.52
2019-01-16T20:08:01.256Z,99647.14
2019-01-16T20:10:48.164Z,99640.95
2019-01-16T20:13:36.462Z,99631.70
2019-01-16T20:16:30.534Z,99622.18
2019-01-16T20:19:17.418Z,99624.67
2019-01-16T20:22:08.897Z,99605.38
2019-01-16T20:24:55.748Z,99608.95
2019-01-16T20:27:43.737Z,99611.27
2019-01-16T20:30:27.704Z,99602.80
2019-01-16T20:33:14.544Z,99599.84
2019-01-16T20:36:14.944Z,99598.19
2019-01-16T20:38:59.821Z,99596.96
2019-01-16T20:41:56.977Z,99576.15
2019-01-16T20:44:40.249Z,99590.02
2019-01-16T20:47:40.500Z,99584.48
2019-01-16T20:50:27.571Z,99576.59
2019-01-16T20:53:21.687Z,99578.95
2019-01-16T20:56:08.719Z,99559.31
2019-01-16T20:58:59.824Z,99565.91
2019-01-16T21:01:49.533Z,99564.64
2019-01-16T21:04:36.770Z,99553.03
2019-01-16T21:07:23.655Z,99554.34
2019-01-16T21:10:08.881Z,99547.58
2019-01-16T21:12:55.787Z,99543.00
2019-01-16T21:15:33.902Z,99547.84
2019-01-16T21:18:14.842Z,99543.22
2019-01-16T21:21:08.056Z,99541.70
2019-01-16T21:23:58.929Z,99530.70
2019-01-16T21:26:46.919Z,99534.80
2019-01-16T21:29:34.936Z,99527.44
2019-01-16T21:32:22.307Z,99521.17
2019-01-16T21:34:58.919Z,99520.23
2019-01-16T21:37:45.274Z,99508.38
2019-01-16T21:40:32.514Z,99501.48
2019-01-16T21:43:26.820Z,99514.27
2019-01-16T21:46:08.309Z,99506.63
2019-01-16T21:48:50.568Z,99511.38
2019-01-16T21:51:38.645Z,99504.58
2019-01-16T21:54:23.171Z,99508.33
2019-01-16T21:57:08.757Z,99499.04
2019-01-16T21:59:55.626Z,99502.53
2019-01-16T22:02:39.612Z,99505.98
2019-01-16T22:05:30.923Z,99491.69
2019-01-16T22:08:31.344Z,99493.34
2019-01-16T22:11:17.928Z,99495.23
2019-01-16T22:14:04.901Z,99478.41
2019-01-16T22:16:52.949Z,99482.45
2019-01-16T22:19:41.400Z,99473.30
2019-01-16T22:22:38.677Z,99463.09
2019-01-16T22:25:19.529Z,99475.44
2019-01-16T22:28:10.739Z,99467.77
2019-01-16T22:30:58.775Z,99465.61
2019-01-16T22:33:46.272Z,99462.45
2019-01-16T22:36:43.532Z,99454.53
2019-01-16T22:39:30.553Z,99455.30
2019-01-16T22:42:21.556Z,99449.23
2019-01-16T22:45:09.587Z,99449.33
2019-01-16T22:47:51.112Z,99448.75
2019-01-16T22:50:37.816Z,99454.68
2019-01-16T22:53:21.673Z,99449.58
2019-01-16T22:56:27.884Z,99441.64
2019-01-16T22:59:12.028Z,99445.53
2019-01-16T23:01:54.348Z,99443.00
2019-01-16T23:04:42.381Z,99437.94
2019-01-16T23:07:39.692Z,99434.49
2019-01-16T23:10:26.833Z,99426.81
2019-01-16T23:13:30.216Z,99434.35
2019-01-16T23:16:24.144Z,99422.97
2019-01-16T23:19:18.029Z,99423.70
2019-01-16T23:21:56.127Z,99416.16
2019-01-16T23:24:47.273Z,99400.16
2019-01-16T23:27:44.087Z,99427.41
2019-01-16T23:30:42.910Z,99435.41
2019-01-16T23:33:27.157Z,99436.00
2019-01-16T23:36:04.505Z,99445.30
2019-01-16T23:38:58.711Z,99447.05
2019-01-16T23:41:46.748Z,99440.33
2019-01-16T23:44:34.771Z,99439.39
2019-01-16T23:47:22.830Z,99440.38
2019-01-16T23:50:22.019Z,99457.44
2019-01-16T23:53:08.163Z,99444.02
2019-01-16T23:56:03.067Z,99452.29
2019-01-16T23:58:56.375Z,99450.68
